sensor_id;sensor_type;location;lat;lon;timestamp;P1;durP1;ratioP1;P2;durP2;ratioP2
6362;SDS011;3214;49.932;8.494;2024-02-14T00:01:31;7.80;;;4.73;;
6362;SDS011;3214;49.932;8.494;2024-02-14T00:03:59;7.20;;;4.70;;
6362;SDS011;3214;49.932;8.494;2024-02-14T00:06:29;8.13;;;4.90;;
6362;SDS011;3214;49.932;8.494;2024-02-14T00:09:04;9.07;;;4.97;;
6362;SDS011;3214;49.932;8.494;2024-02-14T00:11:32;8.63;;;4.43;;
6362;SDS011;3214;49.932;8.494;2024-02-14T00:14:00;7.10;;;4.60;;
6362;SDS011;3214;49.932;8.494;2024-02-14T00:16:27;6.10;;;4.80;;
6362;SDS011;3214;49.932;8.494;2024-02-14T00:18:56;7.13;;;4.47;;
6362;SDS011;3214;49.932;8.494;2024-02-14T00:21:24;9.87;;;4.90;;
6362;SDS011;3214;49.932;8.494;2024-02-14T00:23:54;8.27;;;4.77;;
6362;SDS011;3214;49.932;8.494;2024-02-14T00:26:24;7.27;;;4.70;;
6362;SDS011;3214;49.932;8.494;2024-02-14T00:28:52;6.60;;;4.57;;
6362;SDS011;3214;49.932;8.494;2024-02-14T00:31:20;9.40;;;4.90;;
6362;SDS011;3214;49.932;8.494;2024-02-14T00:33:47;9.03;;;4.60;;
6362;SDS011;3214;49.932;8.494;2024-02-14T00:36:14;9.43;;;4.90;;
6362;SDS011;3214;49.932;8.494;2024-02-14T00:38:43;8.47;;;4.57;;
6362;SDS011;3214;49.932;8.494;2024-02-14T00:41:10;12.93;;;4.63;;
6362;SDS011;3214;49.932;8.494;2024-02-14T00:43:39;8.00;;;4.63;;
6362;SDS011;3214;49.932;8.494;2024-02-14T00:46:07;8.33;;;4.70;;
6362;SDS011;3214;49.932;8.494;2024-02-14T00:48:34;8.73;;;4.67;;
6362;SDS011;3214;49.932;8.494;2024-02-14T00:51:02;7.43;;;4.37;;
6362;SDS011;3214;49.932;8.494;2024-02-14T00:53:30;7.63;;;4.43;;
6362;SDS011;3214;49.932;8.494;2024-02-14T00:55:57;7.97;;;4.27;;
6362;SDS011;3214;49.932;8.494;2024-02-14T00:58:24;5.47;;;3.80;;
6362;SDS011;3214;49.932;8.494;2024-02-14T01:00:53;8.27;;;4.13;;
6362;SDS011;3214;49.932;8.494;2024-02-14T01:03:21;6.83;;;4.10;;
6362;SDS011;3214;49.932;8.494;2024-02-14T01:05:48;7.53;;;4.10;;
6362;SDS011;3214;49.932;8.494;2024-02-14T01:08:16;7.10;;;4.17;;
6362;SDS011;3214;49.932;8.494;2024-02-14T01:10:44;7.10;;;4.27;;
6362;SDS011;3214;49.932;8.494;2024-02-14T01:13:12;7.63;;;4.73;;
6362;SDS011;3214;49.932;8.494;2024-02-14T01:15:39;8.00;;;5.00;;
6362;SDS011;3214;49.932;8.494;2024-02-14T01:18:09;7.67;;;4.80;;
6362;SDS011;3214;49.932;8.494;2024-02-14T01:20:36;8.10;;;5.20;;
6362;SDS011;3214;49.932;8.494;2024-02-14T01:23:04;7.53;;;4.93;;
6362;SDS011;3214;49.932;8.494;2024-02-14T01:25:31;7.60;;;5.50;;
6362;SDS011;3214;49.932;8.494;2024-02-14T01:27:59;7.87;;;5.07;;
6362;SDS011;3214;49.932;8.494;2024-02-14T01:30:27;10.23;;;5.17;;
6362;SDS011;3214;49.932;8.494;2024-02-14T01:32:54;8.10;;;5.17;;
6362;SDS011;3214;49.932;8.494;2024-02-14T01:35:23;9.90;;;5.40;;
6362;SDS011;3214;49.932;8.494;2024-02-14T01:37:51;8.90;;;5.10;;
6362;SDS011;3214;49.932;8.494;2024-02-14T01:40:19;7.47;;;4.80;;
6362;SDS011;3214;49.932;8.494;2024-02-14T01:42:46;10.00;;;5.37;;
6362;SDS011;3214;49.932;8.494;2024-02-14T01:45:14;8.40;;;4.70;;
6362;SDS011;3214;49.932;8.494;2024-02-14T01:47:42;10.53;;;5.23;;
6362;SDS011;3214;49.932;8.494;2024-02-14T01:50:10;11.93;;;4.60;;
6362;SDS011;3214;49.932;8.494;2024-02-14T01:52:39;8.77;;;4.27;;
6362;SDS011;3214;49.932;8.494;2024-02-14T01:55:08;6.93;;;4.20;;
6362;SDS011;3214;49.932;8.494;2024-02-14T01:57:37;7.53;;;4.20;;
6362;SDS011;3214;49.932;8.494;2024-02-14T02:00:06;9.10;;;4.20;;
6362;SDS011;3214;49.932;8.494;2024-02-14T02:02:34;7.27;;;3.77;;
6362;SDS011;3214;49.932;8.494;2024-02-14T02:05:03;8.00;;;3.97;;
6362;SDS011;3214;49.932;8.494;2024-02-14T02:07:31;5.17;;;3.77;;
6362;SDS011;3214;49.932;8.494;2024-02-14T02:10:01;6.13;;;3.67;;
6362;SDS011;3214;49.932;8.494;2024-02-14T02:12:29;5.37;;;3.80;;
6362;SDS011;3214;49.932;8.494;2024-02-14T02:14:57;6.50;;;4.07;;
6362;SDS011;3214;49.932;8.494;2024-02-14T02:17:24;6.03;;;3.90;;
6362;SDS011;3214;49.932;8.494;2024-02-14T02:19:53;8.67;;;3.80;;
6362;SDS011;3214;49.932;8.494;2024-02-14T02:22:20;10.97;;;4.50;;
6362;SDS011;3214;49.932;8.494;2024-02-14T02:24:48;10.27;;;4.27;;
6362;SDS011;3214;49.932;8.494;2024-02-14T02:27:16;5.60;;;3.63;;
6362;SDS011;3214;49.932;8.494;2024-02-14T02:29:42;7.17;;;3.90;;
6362;SDS011;3214;49.932;8.494;2024-02-14T02:32:09;6.53;;;3.80;;
6362;SDS011;3214;49.932;8.494;2024-02-14T02:34:36;7.47;;;4.00;;
6362;SDS011;3214;49.932;8.494;2024-02-14T02:37:04;6.43;;;3.63;;
6362;SDS011;3214;49.932;8.494;2024-02-14T02:39:32;7.27;;;4.10;;
6362;SDS011;3214;49.932;8.494;2024-02-14T02:42:00;8.20;;;4.37;;
6362;SDS011;3214;49.932;8.494;2024-02-14T02:44:27;7.57;;;3.70;;
6362;SDS011;3214;49.932;8.494;2024-02-14T02:46:54;7.00;;;3.90;;
6362;SDS011;3214;49.932;8.494;2024-02-14T02:49:21;9.90;;;4.10;;
6362;SDS011;3214;49.932;8.494;2024-02-14T02:51:47;8.53;;;4.10;;
6362;SDS011;3214;49.932;8.494;2024-02-14T02:54:14;7.13;;;4.00;;
6362;SDS011;3214;49.932;8.494;2024-02-14T02:56:41;9.47;;;3.90;;
6362;SDS011;3214;49.932;8.494;2024-02-14T02:59:09;7.50;;;4.37;;
6362;SDS011;3214;49.932;8.494;2024-02-14T03:01:36;5.97;;;3.90;;
6362;SDS011;3214;49.932;8.494;2024-02-14T03:04:03;6.47;;;3.67;;
6362;SDS011;3214;49.932;8.494;2024-02-14T03:06:30;8.80;;;4.03;;
6362;SDS011;3214;49.932;8.494;2024-02-14T03:08:56;8.83;;;4.70;;
6362;SDS011;3214;49.932;8.494;2024-02-14T03:11:24;7.40;;;4.40;;
6362;SDS011;3214;49.932;8.494;2024-02-14T03:13:51;9.67;;;4.40;;
6362;SDS011;3214;49.932;8.494;2024-02-14T03:16:19;8.60;;;4.27;;
6362;SDS011;3214;49.932;8.494;2024-02-14T03:18:46;7.27;;;3.93;;
6362;SDS011;3214;49.932;8.494;2024-02-14T03:21:13;9.57;;;4.17;;
6362;SDS011;3214;49.932;8.494;2024-02-14T03:23:40;6.37;;;4.27;;
6362;SDS011;3214;49.932;8.494;2024-02-14T03:26:06;5.90;;;4.27;;
6362;SDS011;3214;49.932;8.494;2024-02-14T03:28:34;8.57;;;4.37;;
6362;SDS011;3214;49.932;8.494;2024-02-14T03:31:00;14.63;;;4.83;;
6362;SDS011;3214;49.932;8.494;2024-02-14T03:33:28;7.20;;;4.33;;
6362;SDS011;3214;49.932;8.494;2024-02-14T03:35:55;12.10;;;4.83;;
6362;SDS011;3214;49.932;8.494;2024-02-14T03:38:25;7.67;;;4.63;;
6362;SDS011;3214;49.932;8.494;2024-02-14T03:40:52;9.27;;;5.07;;
6362;SDS011;3214;49.932;8.494;2024-02-14T03:43:19;10.67;;;5.00;;
6362;SDS011;3214;49.932;8.494;2024-02-14T03:45:47;8.13;;;4.80;;
6362;SDS011;3214;49.932;8.494;2024-02-14T03:48:13;10.23;;;4.80;;
6362;SDS011;3214;49.932;8.494;2024-02-14T03:50:42;9.67;;;4.87;;
6362;SDS011;3214;49.932;8.494;2024-02-14T03:53:08;8.83;;;4.77;;
6362;SDS011;3214;49.932;8.494;2024-02-14T03:55:36;7.07;;;4.43;;
6362;SDS011;3214;49.932;8.494;2024-02-14T03:58:02;8.07;;;4.77;;
6362;SDS011;3214;49.932;8.494;2024-02-14T04:00:30;7.37;;;4.30;;
6362;SDS011;3214;49.932;8.494;2024-02-14T04:02:57;8.97;;;4.70;;
6362;SDS011;3214;49.932;8.494;2024-02-14T04:05:24;9.10;;;5.00;;
6362;SDS011;3214;49.932;8.494;2024-02-14T04:07:53;8.70;;;4.67;;
6362;SDS011;3214;49.932;8.494;2024-02-14T04:10:20;7.07;;;4.50;;
6362;SDS011;3214;49.932;8.494;2024-02-14T04:12:47;9.87;;;4.93;;
6362;SDS011;3214;49.932;8.494;2024-02-14T04:15:14;12.23;;;4.90;;
6362;SDS011;3214;49.932;8.494;2024-02-14T04:17:41;9.50;;;4.70;;
6362;SDS011;3214;49.932;8.494;2024-02-14T04:20:08;8.27;;;4.70;;
6362;SDS011;3214;49.932;8.494;2024-02-14T04:22:35;7.03;;;4.50;;
6362;SDS011;3214;49.932;8.494;2024-02-14T04:25:03;5.83;;;4.33;;
6362;SDS011;3214;49.932;8.494;2024-02-14T04:27:30;8.17;;;4.77;;
6362;SDS011;3214;49.932;8.494;2024-02-14T04:29:57;7.10;;;4.87;;
6362;SDS011;3214;49.932;8.494;2024-02-14T04:32:24;9.33;;;4.87;;
6362;SDS011;3214;49.932;8.494;2024-02-14T04:34:50;11.20;;;4.57;;
6362;SDS011;3214;49.932;8.494;2024-02-14T04:37:18;7.00;;;4.60;;
6362;SDS011;3214;49.932;8.494;2024-02-14T04:39:44;9.87;;;4.47;;
6362;SDS011;3214;49.932;8.494;2024-02-14T04:42:13;7.90;;;4.67;;
6362;SDS011;3214;49.932;8.494;2024-02-14T04:44:39;7.73;;;4.70;;
6362;SDS011;3214;49.932;8.494;2024-02-14T04:47:06;7.23;;;4.47;;
6362;SDS011;3214;49.932;8.494;2024-02-14T04:49:34;8.87;;;5.00;;
6362;SDS011;3214;49.932;8.494;2024-02-14T04:52:01;8.77;;;5.03;;
6362;SDS011;3214;49.932;8.494;2024-02-14T04:54:29;9.80;;;5.13;;
6362;SDS011;3214;49.932;8.494;2024-02-14T04:56:55;8.40;;;4.67;;
6362;SDS011;3214;49.932;8.494;2024-02-14T04:59:23;7.97;;;4.40;;
6362;SDS011;3214;49.932;8.494;2024-02-14T05:01:50;9.40;;;4.63;;
6362;SDS011;3214;49.932;8.494;2024-02-14T05:04:19;8.47;;;4.87;;
6362;SDS011;3214;49.932;8.494;2024-02-14T05:06:45;9.50;;;5.07;;
6362;SDS011;3214;49.932;8.494;2024-02-14T05:09:12;6.90;;;4.83;;
6362;SDS011;3214;49.932;8.494;2024-02-14T05:11:40;8.63;;;5.13;;
6362;SDS011;3214;49.932;8.494;2024-02-14T05:14:06;9.63;;;5.10;;
6362;SDS011;3214;49.932;8.494;2024-02-14T05:16:34;8.70;;;5.13;;
6362;SDS011;3214;49.932;8.494;2024-02-14T05:19:01;10.10;;;4.87;;
6362;SDS011;3214;49.932;8.494;2024-02-14T05:21:28;8.43;;;5.10;;
6362;SDS011;3214;49.932;8.494;2024-02-14T05:23:55;6.73;;;4.30;;
6362;SDS011;3214;49.932;8.494;2024-02-14T05:26:21;7.90;;;4.50;;
6362;SDS011;3214;49.932;8.494;2024-02-14T05:28:48;8.50;;;4.83;;
6362;SDS011;3214;49.932;8.494;2024-02-14T05:31:15;8.87;;;4.87;;
6362;SDS011;3214;49.932;8.494;2024-02-14T05:33:43;7.37;;;4.80;;
6362;SDS011;3214;49.932;8.494;2024-02-14T05:36:10;8.17;;;4.77;;
6362;SDS011;3214;49.932;8.494;2024-02-14T05:38:37;12.60;;;5.23;;
6362;SDS011;3214;49.932;8.494;2024-02-14T05:41:03;7.40;;;4.57;;
6362;SDS011;3214;49.932;8.494;2024-02-14T05:43:32;7.17;;;4.73;;
6362;SDS011;3214;49.932;8.494;2024-02-14T05:45:59;8.50;;;4.67;;
6362;SDS011;3214;49.932;8.494;2024-02-14T05:48:26;8.50;;;4.80;;
6362;SDS011;3214;49.932;8.494;2024-02-14T05:50:54;7.57;;;4.60;;
6362;SDS011;3214;49.932;8.494;2024-02-14T05:53:21;11.43;;;4.60;;
6362;SDS011;3214;49.932;8.494;2024-02-14T05:55:47;8.07;;;4.50;;
6362;SDS011;3214;49.932;8.494;2024-02-14T05:58:14;7.93;;;4.70;;
6362;SDS011;3214;49.932;8.494;2024-02-14T06:00:40;10.03;;;5.23;;
6362;SDS011;3214;49.932;8.494;2024-02-14T06:03:07;7.27;;;4.30;;
6362;SDS011;3214;49.932;8.494;2024-02-14T06:05:34;7.23;;;4.77;;
6362;SDS011;3214;49.932;8.494;2024-02-14T06:08:02;8.13;;;4.73;;
6362;SDS011;3214;49.932;8.494;2024-02-14T06:10:30;9.00;;;4.67;;
6362;SDS011;3214;49.932;8.494;2024-02-14T06:12:59;8.03;;;4.47;;
6362;SDS011;3214;49.932;8.494;2024-02-14T06:15:27;7.37;;;4.33;;
6362;SDS011;3214;49.932;8.494;2024-02-14T06:17:54;7.23;;;4.83;;
6362;SDS011;3214;49.932;8.494;2024-02-14T06:20:22;8.50;;;4.83;;
6362;SDS011;3214;49.932;8.494;2024-02-14T06:22:52;7.67;;;4.60;;
6362;SDS011;3214;49.932;8.494;2024-02-14T06:25:21;7.83;;;4.50;;
6362;SDS011;3214;49.932;8.494;2024-02-14T06:27:48;9.60;;;4.70;;
6362;SDS011;3214;49.932;8.494;2024-02-14T06:30:15;11.70;;;4.93;;
6362;SDS011;3214;49.932;8.494;2024-02-14T06:32:42;7.47;;;4.53;;
6362;SDS011;3214;49.932;8.494;2024-02-14T06:35:10;8.27;;;4.60;;
6362;SDS011;3214;49.932;8.494;2024-02-14T06:37:41;9.20;;;4.60;;
6362;SDS011;3214;49.932;8.494;2024-02-14T06:40:09;7.90;;;4.57;;
6362;SDS011;3214;49.932;8.494;2024-02-14T06:42:42;7.27;;;4.40;;
6362;SDS011;3214;49.932;8.494;2024-02-14T06:45:10;7.93;;;4.40;;
6362;SDS011;3214;49.932;8.494;2024-02-14T06:47:37;9.00;;;5.00;;
6362;SDS011;3214;49.932;8.494;2024-02-14T06:50:05;10.00;;;5.43;;
6362;SDS011;3214;49.932;8.494;2024-02-14T06:52:33;8.10;;;4.70;;
6362;SDS011;3214;49.932;8.494;2024-02-14T06:55:01;6.20;;;4.23;;
6362;SDS011;3214;49.932;8.494;2024-02-14T06:57:29;7.30;;;4.77;;
6362;SDS011;3214;49.932;8.494;2024-02-14T06:59:57;6.83;;;4.40;;
6362;SDS011;3214;49.932;8.494;2024-02-14T07:02:31;10.23;;;4.73;;
6362;SDS011;3214;49.932;8.494;2024-02-14T07:04:58;8.67;;;4.40;;
6362;SDS011;3214;49.932;8.494;2024-02-14T07:07:27;9.07;;;4.17;;
6362;SDS011;3214;49.932;8.494;2024-02-14T07:09:54;7.50;;;4.67;;
6362;SDS011;3214;49.932;8.494;2024-02-14T07:12:21;9.07;;;4.10;;
6362;SDS011;3214;49.932;8.494;2024-02-14T07:14:47;9.37;;;4.20;;
6362;SDS011;3214;49.932;8.494;2024-02-14T07:17:16;9.60;;;4.30;;
6362;SDS011;3214;49.932;8.494;2024-02-14T07:19:43;10.03;;;4.50;;
6362;SDS011;3214;49.932;8.494;2024-02-14T07:22:14;7.57;;;4.03;;
6362;SDS011;3214;49.932;8.494;2024-02-14T07:24:44;7.83;;;4.30;;
6362;SDS011;3214;49.932;8.494;2024-02-14T07:27:11;7.93;;;4.20;;
6362;SDS011;3214;49.932;8.494;2024-02-14T07:29:38;11.43;;;4.67;;
6362;SDS011;3214;49.932;8.494;2024-02-14T07:32:05;6.37;;;4.17;;
6362;SDS011;3214;49.932;8.494;2024-02-14T07:34:34;10.67;;;3.97;;
6362;SDS011;3214;49.932;8.494;2024-02-14T07:37:01;8.10;;;4.20;;
6362;SDS011;3214;49.932;8.494;2024-02-14T07:39:29;7.00;;;4.30;;
6362;SDS011;3214;49.932;8.494;2024-02-14T07:41:55;7.03;;;3.80;;
6362;SDS011;3214;49.932;8.494;2024-02-14T07:44:23;7.47;;;4.13;;
6362;SDS011;3214;49.932;8.494;2024-02-14T07:46:49;7.03;;;3.77;;
6362;SDS011;3214;49.932;8.494;2024-02-14T07:49:17;7.33;;;4.00;;
6362;SDS011;3214;49.932;8.494;2024-02-14T07:51:45;7.00;;;4.30;;
6362;SDS011;3214;49.932;8.494;2024-02-14T07:54:13;7.00;;;4.00;;
6362;SDS011;3214;49.932;8.494;2024-02-14T07:56:40;5.73;;;3.70;;
6362;SDS011;3214;49.932;8.494;2024-02-14T07:59:07;8.47;;;4.60;;
6362;SDS011;3214;49.932;8.494;2024-02-14T08:01:33;7.90;;;4.50;;
6362;SDS011;3214;49.932;8.494;2024-02-14T08:04:00;7.80;;;4.30;;
6362;SDS011;3214;49.932;8.494;2024-02-14T08:06:27;7.60;;;4.03;;
6362;SDS011;3214;49.932;8.494;2024-02-14T08:08:55;7.90;;;4.40;;
6362;SDS011;3214;49.932;8.494;2024-02-14T08:11:26;10.73;;;4.50;;
6362;SDS011;3214;49.932;8.494;2024-02-14T08:13:54;7.80;;;4.27;;
6362;SDS011;3214;49.932;8.494;2024-02-14T08:16:21;5.93;;;4.17;;
6362;SDS011;3214;49.932;8.494;2024-02-14T08:18:47;11.27;;;5.20;;
6362;SDS011;3214;49.932;8.494;2024-02-14T08:21:15;8.50;;;4.73;;
6362;SDS011;3214;49.932;8.494;2024-02-14T08:23:42;7.47;;;4.17;;
6362;SDS011;3214;49.932;8.494;2024-02-14T08:26:10;9.63;;;4.13;;
6362;SDS011;3214;49.932;8.494;2024-02-14T08:28:37;5.77;;;4.10;;
6362;SDS011;3214;49.932;8.494;2024-02-14T08:31:09;6.33;;;3.87;;
6362;SDS011;3214;49.932;8.494;2024-02-14T08:33:36;10.80;;;4.10;;
6362;SDS011;3214;49.932;8.494;2024-02-14T08:36:03;8.13;;;4.90;;
6362;SDS011;3214;49.932;8.494;2024-02-14T08:38:32;12.10;;;5.13;;
6362;SDS011;3214;49.932;8.494;2024-02-14T08:40:59;10.83;;;5.13;;
6362;SDS011;3214;49.932;8.494;2024-02-14T08:43:28;7.73;;;4.10;;
6362;SDS011;3214;49.932;8.494;2024-02-14T08:45:55;5.53;;;3.87;;
6362;SDS011;3214;49.932;8.494;2024-02-14T08:48:21;9.03;;;4.13;;
6362;SDS011;3214;49.932;8.494;2024-02-14T08:50:48;7.70;;;3.97;;
6362;SDS011;3214;49.932;8.494;2024-02-14T08:53:15;6.83;;;3.90;;
6362;SDS011;3214;49.932;8.494;2024-02-14T08:55:42;9.83;;;3.80;;
6362;SDS011;3214;49.932;8.494;2024-02-14T08:58:09;6.60;;;3.60;;
6362;SDS011;3214;49.932;8.494;2024-02-14T09:00:37;6.53;;;3.10;;
6362;SDS011;3214;49.932;8.494;2024-02-14T09:03:05;8.13;;;3.53;;
6362;SDS011;3214;49.932;8.494;2024-02-14T09:05:32;4.43;;;3.20;;
6362;SDS011;3214;49.932;8.494;2024-02-14T09:07:59;7.60;;;3.13;;
6362;SDS011;3214;49.932;8.494;2024-02-14T09:10:26;5.40;;;3.10;;
6362;SDS011;3214;49.932;8.494;2024-02-14T09:12:53;5.23;;;3.27;;
6362;SDS011;3214;49.932;8.494;2024-02-14T09:15:20;6.30;;;2.97;;
6362;SDS011;3214;49.932;8.494;2024-02-14T09:17:49;6.13;;;3.13;;
6362;SDS011;3214;49.932;8.494;2024-02-14T09:20:17;7.17;;;3.20;;
6362;SDS011;3214;49.932;8.494;2024-02-14T09:22:44;9.00;;;3.30;;
6362;SDS011;3214;49.932;8.494;2024-02-14T09:25:10;4.57;;;2.90;;
6362;SDS011;3214;49.932;8.494;2024-02-14T09:27:38;5.33;;;2.80;;
6362;SDS011;3214;49.932;8.494;2024-02-14T09:30:06;3.97;;;2.90;;
6362;SDS011;3214;49.932;8.494;2024-02-14T09:32:34;4.30;;;2.73;;
6362;SDS011;3214;49.932;8.494;2024-02-14T09:35:02;4.53;;;2.87;;
6362;SDS011;3214;49.932;8.494;2024-02-14T09:37:31;6.17;;;3.03;;
6362;SDS011;3214;49.932;8.494;2024-02-14T09:39:58;7.43;;;3.27;;
6362;SDS011;3214;49.932;8.494;2024-02-14T09:42:27;6.13;;;2.70;;
6362;SDS011;3214;49.932;8.494;2024-02-14T09:45:01;6.20;;;2.70;;
6362;SDS011;3214;49.932;8.494;2024-02-14T09:47:28;4.73;;;2.90;;
6362;SDS011;3214;49.932;8.494;2024-02-14T09:49:58;7.83;;;2.93;;
6362;SDS011;3214;49.932;8.494;2024-02-14T09:52:29;6.10;;;3.13;;
6362;SDS011;3214;49.932;8.494;2024-02-14T09:54:59;6.47;;;2.70;;
6362;SDS011;3214;49.932;8.494;2024-02-14T09:57:28;3.13;;;2.50;;
6362;SDS011;3214;49.932;8.494;2024-02-14T09:59:56;4.30;;;2.60;;
6362;SDS011;3214;49.932;8.494;2024-02-14T10:02:23;6.33;;;2.60;;
6362;SDS011;3214;49.932;8.494;2024-02-14T10:04:50;9.07;;;2.93;;
6362;SDS011;3214;49.932;8.494;2024-02-14T10:07:17;4.23;;;2.90;;
6362;SDS011;3214;49.932;8.494;2024-02-14T10:09:45;7.23;;;3.10;;
6362;SDS011;3214;49.932;8.494;2024-02-14T10:12:13;7.63;;;3.13;;
6362;SDS011;3214;49.932;8.494;2024-02-14T10:14:40;8.40;;;3.10;;
6362;SDS011;3214;49.932;8.494;2024-02-14T10:17:07;5.20;;;3.20;;
6362;SDS011;3214;49.932;8.494;2024-02-14T10:19:35;4.70;;;2.87;;
6362;SDS011;3214;49.932;8.494;2024-02-14T10:22:01;6.10;;;2.63;;
6362;SDS011;3214;49.932;8.494;2024-02-14T10:24:30;7.17;;;3.10;;
6362;SDS011;3214;49.932;8.494;2024-02-14T10:26:59;4.20;;;2.97;;
6362;SDS011;3214;49.932;8.494;2024-02-14T10:29:27;7.37;;;2.87;;
6362;SDS011;3214;49.932;8.494;2024-02-14T10:31:54;7.57;;;2.80;;
6362;SDS011;3214;49.932;8.494;2024-02-14T10:34:24;5.27;;;2.83;;
6362;SDS011;3214;49.932;8.494;2024-02-14T10:36:52;4.93;;;3.00;;
6362;SDS011;3214;49.932;8.494;2024-02-14T10:39:19;5.37;;;2.60;;
6362;SDS011;3214;49.932;8.494;2024-02-14T10:41:47;5.60;;;2.60;;
6362;SDS011;3214;49.932;8.494;2024-02-14T10:44:16;5.63;;;3.00;;
6362;SDS011;3214;49.932;8.494;2024-02-14T10:46:44;6.40;;;3.17;;
6362;SDS011;3214;49.932;8.494;2024-02-14T10:49:12;5.70;;;2.80;;
6362;SDS011;3214;49.932;8.494;2024-02-14T10:51:42;7.80;;;3.10;;
6362;SDS011;3214;49.932;8.494;2024-02-14T10:54:13;5.90;;;2.97;;
6362;SDS011;3214;49.932;8.494;2024-02-14T10:56:43;2.77;;;2.47;;
6362;SDS011;3214;49.932;8.494;2024-02-14T10:59:15;5.30;;;2.80;;
6362;SDS011;3214;49.932;8.494;2024-02-14T11:01:46;3.67;;;2.67;;
6362;SDS011;3214;49.932;8.494;2024-02-14T11:04:14;4.67;;;2.60;;
6362;SDS011;3214;49.932;8.494;2024-02-14T11:06:46;4.70;;;2.80;;
6362;SDS011;3214;49.932;8.494;2024-02-14T11:09:13;4.23;;;2.67;;
6362;SDS011;3214;49.932;8.494;2024-02-14T11:11:41;6.93;;;2.80;;
6362;SDS011;3214;49.932;8.494;2024-02-14T11:14:09;5.87;;;2.60;;
6362;SDS011;3214;49.932;8.494;2024-02-14T11:16:38;3.57;;;2.60;;
6362;SDS011;3214;49.932;8.494;2024-02-14T11:19:05;5.17;;;2.70;;
6362;SDS011;3214;49.932;8.494;2024-02-14T11:21:35;3.90;;;2.90;;
6362;SDS011;3214;49.932;8.494;2024-02-14T11:24:04;5.40;;;2.80;;
6362;SDS011;3214;49.932;8.494;2024-02-14T11:26:37;4.60;;;2.53;;
6362;SDS011;3214;49.932;8.494;2024-02-14T11:29:13;4.03;;;2.43;;
6362;SDS011;3214;49.932;8.494;2024-02-14T11:31:43;3.57;;;2.50;;
6362;SDS011;3214;49.932;8.494;2024-02-14T11:34:11;4.37;;;2.57;;
6362;SDS011;3214;49.932;8.494;2024-02-14T11:36:38;5.67;;;2.50;;
6362;SDS011;3214;49.932;8.494;2024-02-14T11:39:07;2.73;;;2.30;;
6362;SDS011;3214;49.932;8.494;2024-02-14T11:41:34;7.03;;;2.30;;
6362;SDS011;3214;49.932;8.494;2024-02-14T11:44:02;5.00;;;2.70;;
6362;SDS011;3214;49.932;8.494;2024-02-14T11:46:30;4.37;;;2.40;;
6362;SDS011;3214;49.932;8.494;2024-02-14T11:48:59;4.50;;;2.53;;
6362;SDS011;3214;49.932;8.494;2024-02-14T11:51:27;3.20;;;2.13;;
6362;SDS011;3214;49.932;8.494;2024-02-14T11:53:55;3.13;;;2.20;;
6362;SDS011;3214;49.932;8.494;2024-02-14T11:56:22;5.37;;;2.53;;
6362;SDS011;3214;49.932;8.494;2024-02-14T11:58:50;5.07;;;2.20;;
6362;SDS011;3214;49.932;8.494;2024-02-14T12:01:17;3.67;;;2.20;;
6362;SDS011;3214;49.932;8.494;2024-02-14T12:03:44;5.37;;;2.10;;
6362;SDS011;3214;49.932;8.494;2024-02-14T12:06:13;4.07;;;2.17;;
6362;SDS011;3214;49.932;8.494;2024-02-14T12:08:40;3.00;;;2.30;;
6362;SDS011;3214;49.932;8.494;2024-02-14T12:11:07;5.20;;;2.60;;
6362;SDS011;3214;49.932;8.494;2024-02-14T12:13:35;6.30;;;2.30;;
6362;SDS011;3214;49.932;8.494;2024-02-14T12:16:03;3.80;;;2.40;;
6362;SDS011;3214;49.932;8.494;2024-02-14T12:18:32;3.27;;;2.20;;
6362;SDS011;3214;49.932;8.494;2024-02-14T12:21:03;2.33;;;1.93;;
6362;SDS011;3214;49.932;8.494;2024-02-14T12:23:34;3.30;;;2.20;;
6362;SDS011;3214;49.932;8.494;2024-02-14T12:26:01;3.37;;;2.30;;
6362;SDS011;3214;49.932;8.494;2024-02-14T12:28:29;4.60;;;2.50;;
6362;SDS011;3214;49.932;8.494;2024-02-14T12:30:56;5.90;;;2.20;;
6362;SDS011;3214;49.932;8.494;2024-02-14T12:33:24;3.87;;;2.33;;
6362;SDS011;3214;49.932;8.494;2024-02-14T12:35:52;3.30;;;1.97;;
6362;SDS011;3214;49.932;8.494;2024-02-14T12:38:20;2.60;;;2.20;;
6362;SDS011;3214;49.932;8.494;2024-02-14T12:40:50;5.43;;;2.43;;
6362;SDS011;3214;49.932;8.494;2024-02-14T12:43:19;2.30;;;2.10;;
6362;SDS011;3214;49.932;8.494;2024-02-14T12:45:46;4.50;;;2.00;;
6362;SDS011;3214;49.932;8.494;2024-02-14T12:48:21;5.47;;;2.50;;
6362;SDS011;3214;49.932;8.494;2024-02-14T12:50:49;2.43;;;2.20;;
6362;SDS011;3214;49.932;8.494;2024-02-14T12:53:17;3.97;;;2.57;;
6362;SDS011;3214;49.932;8.494;2024-02-14T12:55:44;4.23;;;2.27;;
6362;SDS011;3214;49.932;8.494;2024-02-14T12:58:12;3.97;;;2.37;;
6362;SDS011;3214;49.932;8.494;2024-02-14T13:00:39;5.27;;;2.13;;
6362;SDS011;3214;49.932;8.494;2024-02-14T13:03:08;3.97;;;2.20;;
6362;SDS011;3214;49.932;8.494;2024-02-14T13:05:35;3.37;;;2.80;;
6362;SDS011;3214;49.932;8.494;2024-02-14T13:08:02;3.70;;;2.20;;
6362;SDS011;3214;49.932;8.494;2024-02-14T13:10:29;2.90;;;2.27;;
6362;SDS011;3214;49.932;8.494;2024-02-14T13:12:56;2.70;;;2.27;;
6362;SDS011;3214;49.932;8.494;2024-02-14T13:15:24;4.83;;;2.17;;
6362;SDS011;3214;49.932;8.494;2024-02-14T13:17:51;7.67;;;2.77;;
6362;SDS011;3214;49.932;8.494;2024-02-14T13:20:17;3.60;;;2.30;;
6362;SDS011;3214;49.932;8.494;2024-02-14T13:22:44;4.93;;;2.53;;
6362;SDS011;3214;49.932;8.494;2024-02-14T13:25:11;4.07;;;2.70;;
6362;SDS011;3214;49.932;8.494;2024-02-14T13:27:39;4.80;;;2.80;;
6362;SDS011;3214;49.932;8.494;2024-02-14T13:30:06;3.97;;;2.80;;
6362;SDS011;3214;49.932;8.494;2024-02-14T13:32:35;4.47;;;2.97;;
6362;SDS011;3214;49.932;8.494;2024-02-14T13:35:02;4.33;;;3.20;;
6362;SDS011;3214;49.932;8.494;2024-02-14T13:37:30;6.53;;;3.00;;
6362;SDS011;3214;49.932;8.494;2024-02-14T13:39:56;6.90;;;3.40;;
6362;SDS011;3214;49.932;8.494;2024-02-14T13:42:23;4.70;;;3.40;;
6362;SDS011;3214;49.932;8.494;2024-02-14T13:44:50;4.97;;;3.03;;
6362;SDS011;3214;49.932;8.494;2024-02-14T13:47:19;6.73;;;3.30;;
6362;SDS011;3214;49.932;8.494;2024-02-14T13:49:47;5.47;;;3.40;;
6362;SDS011;3214;49.932;8.494;2024-02-14T13:52:14;5.53;;;3.10;;
6362;SDS011;3214;49.932;8.494;2024-02-14T13:54:42;6.37;;;3.20;;
6362;SDS011;3214;49.932;8.494;2024-02-14T13:57:09;5.80;;;3.23;;
6362;SDS011;3214;49.932;8.494;2024-02-14T13:59:36;3.90;;;3.30;;
6362;SDS011;3214;49.932;8.494;2024-02-14T14:02:03;5.10;;;3.47;;
6362;SDS011;3214;49.932;8.494;2024-02-14T14:04:30;6.47;;;3.30;;
6362;SDS011;3214;49.932;8.494;2024-02-14T14:06:58;6.93;;;3.50;;
6362;SDS011;3214;49.932;8.494;2024-02-14T14:09:27;6.80;;;3.50;;
6362;SDS011;3214;49.932;8.494;2024-02-14T14:11:55;4.07;;;3.00;;
6362;SDS011;3214;49.932;8.494;2024-02-14T14:14:22;5.37;;;3.13;;
6362;SDS011;3214;49.932;8.494;2024-02-14T14:16:51;4.57;;;3.03;;
6362;SDS011;3214;49.932;8.494;2024-02-14T14:19:18;8.20;;;3.70;;
6362;SDS011;3214;49.932;8.494;2024-02-14T14:21:45;3.97;;;3.40;;
6362;SDS011;3214;49.932;8.494;2024-02-14T14:24:13;5.27;;;3.40;;
6362;SDS011;3214;49.932;8.494;2024-02-14T14:26:40;5.67;;;3.57;;
6362;SDS011;3214;49.932;8.494;2024-02-14T14:29:06;4.57;;;3.47;;
6362;SDS011;3214;49.932;8.494;2024-02-14T14:31:35;4.27;;;3.10;;
6362;SDS011;3214;49.932;8.494;2024-02-14T14:34:02;5.20;;;3.50;;
6362;SDS011;3214;49.932;8.494;2024-02-14T14:36:29;6.17;;;3.80;;
6362;SDS011;3214;49.932;8.494;2024-02-14T14:38:55;4.97;;;3.63;;
6362;SDS011;3214;49.932;8.494;2024-02-14T14:41:24;4.97;;;3.20;;
6362;SDS011;3214;49.932;8.494;2024-02-14T14:43:51;5.00;;;3.20;;
6362;SDS011;3214;49.932;8.494;2024-02-14T14:46:17;4.87;;;2.73;;
6362;SDS011;3214;49.932;8.494;2024-02-14T14:48:44;3.40;;;2.83;;
6362;SDS011;3214;49.932;8.494;2024-02-14T14:51:11;4.13;;;3.43;;
6362;SDS011;3214;49.932;8.494;2024-02-14T14:53:38;4.97;;;2.90;;
6362;SDS011;3214;49.932;8.494;2024-02-14T14:56:05;3.67;;;2.80;;
6362;SDS011;3214;49.932;8.494;2024-02-14T14:58:33;3.00;;;2.70;;
6362;SDS011;3214;49.932;8.494;2024-02-14T15:01:01;4.90;;;2.80;;
6362;SDS011;3214;49.932;8.494;2024-02-14T15:03:30;5.70;;;2.90;;
6362;SDS011;3214;49.932;8.494;2024-02-14T15:05:57;5.50;;;3.30;;
6362;SDS011;3214;49.932;8.494;2024-02-14T15:08:24;4.70;;;3.20;;
6362;SDS011;3214;49.932;8.494;2024-02-14T15:10:52;7.83;;;3.00;;
6362;SDS011;3214;49.932;8.494;2024-02-14T15:13:20;4.37;;;2.83;;
6362;SDS011;3214;49.932;8.494;2024-02-14T15:15:50;6.43;;;3.30;;
6362;SDS011;3214;49.932;8.494;2024-02-14T15:18:17;4.57;;;3.20;;